Time;durP1;ratioP1;P1;durP2;ratioP2;P2;SDS_P1;SDS_P2;PMS_P1;PMS_P2;Temp;Humidity;BMP_temperature;BMP_pressure;BME280_temperature;BME280_humidity;BME280_pressure;Samples;Min_cycle;Max_cycle;Signal;HPM_P1;HPM_P2
2023/04/08 00:00:55;;;;;;;0.47;0.30;;;25.00;99.90;;;;;;5114417;28;20174;-73
2023/04/08 00:03:22;;;;;;;1.93;0.23;;;24.90;99.90;;;;;;5114188;28;20184;-74
2023/04/08 00:05:50;;;;;;;0.30;0.20;;;25.10;99.90;;;;;;5113968;28;20182;-73
2023/04/08 00:08:18;;;;;;;0.50;0.20;;;25.20;99.90;;;;;;5114247;28;20179;-73
2023/04/08 00:10:46;;;;;;;0.20;0.20;;;26.00;99.90;;;;;;5114003;28;20183;-74
2023/04/08 00:13:14;;;;;;;0.20;0.20;;;25.70;99.90;;;;;;5113677;28;20598;-72
2023/04/08 00:15:42;;;;;;;0.20;0.20;;;25.20;99.90;;;;;;5114009;28;20186;-74
2023/04/08 00:18:10;;;;;;;2.67;0.20;;;25.40;99.90;;;;;;5099451;28;20226;-74
2023/04/08 00:20:37;;;;;;;0.57;0.23;;;25.50;99.90;;;;;;5111320;28;20185;-73
2023/04/08 00:23:05;;;;;;;0.27;0.20;;;25.90;99.70;;;;;;5105466;28;20186;-72
2023/04/08 00:25:33;;;;;;;0.73;0.30;;;26.30;98.10;;;;;;5108021;28;20170;-74
2023/04/08 00:28:01;;;;;;;0.20;0.20;;;26.30;95.70;;;;;;5101701;28;20321;-72
2023/04/08 00:30:29;;;;;;;1.63;0.20;;;26.00;94.50;;;;;;5093517;28;20167;-75
2023/04/08 00:32:57;;;;;;;1.87;0.20;;;26.10;95.60;;;;;;5093293;28;20298;-72
2023/04/08 00:35:25;;;;;;;0.77;0.43;;;26.30;91.20;;;;;;5094397;28;20203;-71
2023/04/08 00:37:53;;;;;;;0.27;0.27;;;26.20;92.20;;;;;;5094856;28;20171;-74
2023/04/08 00:40:21;;;;;;;0.77;0.30;;;25.80;94.40;;;;;;5104655;28;20529;-73
2023/04/08 00:42:48;;;;;;;0.97;0.40;;;26.10;94.10;;;;;;5092951;28;20179;-73
2023/04/08 00:45:16;;;;;;;0.27;0.27;;;26.30;94.10;;;;;;5093239;28;20198;-73
2023/04/08 00:47:45;;;;;;;0.90;0.20;;;26.10;92.30;;;;;;5093158;28;20179;-73
2023/04/08 00:50:13;;;;;;;0.53;0.20;;;26.10;94.80;;;;;;5092701;28;20727;-73
2023/04/08 00:52:41;;;;;;;0.40;0.30;;;26.70;92.70;;;;;;5092990;28;20253;-74
2023/04/08 00:55:08;;;;;;;0.63;0.20;;;26.40;90.80;;;;;;5093159;28;20606;-73
2023/04/08 00:57:36;;;;;;;0.20;0.20;;;26.50;93.50;;;;;;5093724;28;20178;-71
2023/04/08 01:00:05;;;;;;;0.30;0.20;;;26.50;89.50;;;;;;5112276;28;20175;-73
2023/04/08 01:02:45;;;;;;;0.27;0.27;;;26.60;90.10;;;;;;5107145;28;20179;-73
2023/04/08 01:05:37;;;;;;;0.23;0.20;;;27.20;91.00;;;;;;5092399;28;20586;-74
2023/04/08 01:08:07;;;;;;;0.60;0.30;;;26.30;84.50;;;;;;5092073;28;20222;-73
2023/04/08 01:10:40;;;;;;;0.73;0.30;;;26.30;83.80;;;;;;5092202;28;20678;-73
2023/04/08 01:13:11;;;;;;;0.40;0.30;;;26.50;88.50;;;;;;5092087;28;20662;-69
2023/04/08 01:15:41;;;;;;;1.83;0.30;;;26.70;88.90;;;;;;5092587;28;20172;-72
2023/04/08 01:18:13;;;;;;;0.23;0.23;;;27.00;90.00;;;;;;5092504;28;20313;-70
2023/04/08 01:20:42;;;;;;;1.73;0.20;;;26.80;86.70;;;;;;5113277;28;20178;-72
2023/04/08 01:23:19;;;;;;;0.37;0.20;;;26.40;86.10;;;;;;5112535;28;20175;-72
2023/04/08 01:25:54;;;;;;;3.63;0.53;;;25.90;84.70;;;;;;5112404;28;20202;-73
2023/04/08 01:28:26;;;;;;;1.53;0.10;;;26.00;90.50;;;;;;5108543;28;20556;-72
2023/04/08 01:30:56;;;;;;;1.70;0.30;;;26.30;92.10;;;;;;5104378;28;20194;-73
2023/04/08 01:33:25;;;;;;;1.03;0.27;;;26.60;88.50;;;;;;5112567;28;20171;-72
2023/04/08 01:35:54;;;;;;;2.23;0.30;;;26.60;87.30;;;;;;5112331;28;20178;-70
2023/04/08 01:38:25;;;;;;;0.63;0.50;;;26.90;86.60;;;;;;5112216;28;20179;-73
2023/04/08 01:40:53;;;;;;;0.77;0.30;;;26.80;86.70;;;;;;5112269;28;20181;-72
2023/04/08 01:43:21;;;;;;;0.30;0.30;;;27.10;78.40;;;;;;5111988;28;20170;-74
2023/04/08 01:45:53;;;;;;;0.30;0.30;;;26.70;81.70;;;;;;5112436;28;20202;-72
2023/04/08 01:48:21;;;;;;;0.60;0.23;;;26.40;82.50;;;;;;5112414;28;20554;-72
2023/04/08 01:50:50;;;;;;;0.50;0.20;;;26.60;89.10;;;;;;5101529;28;20190;-72
2023/04/08 01:53:18;;;;;;;2.00;0.23;;;26.60;85.40;;;;;;5105802;28;20205;-73
2023/04/08 01:55:46;;;;;;;3.03;0.33;;;26.80;90.80;;;;;;5110960;28;20183;-73
2023/04/08 01:58:19;;;;;;;0.37;0.20;;;26.80;82.70;;;;;;5111540;28;20194;-73
2023/04/08 02:00:48;;;;;;;0.20;0.10;;;26.30;80.80;;;;;;5111979;28;20179;-73
2023/04/08 02:03:19;;;;;;;0.20;0.20;;;26.40;87.50;;;;;;5102989;28;20182;-71
2023/04/08 02:05:47;;;;;;;0.53;0.20;;;26.50;83.50;;;;;;5099811;28;20191;-69
2023/04/08 02:08:14;;;;;;;1.63;0.40;;;26.70;82.80;;;;;;5101729;28;20175;-74
2023/04/08 02:10:41;;;;;;;0.40;0.23;;;26.80;85.80;;;;;;5097095;28;20207;-72
2023/04/08 02:13:09;;;;;;;0.20;0.20;;;26.80;82.60;;;;;;5091315;28;20327;-72
2023/04/08 02:15:42;;;;;;;2.10;0.30;;;26.80;79.90;;;;;;5090555;28;20194;-73
2023/04/08 02:18:16;;;;;;;0.20;0.20;;;26.90;83.00;;;;;;5101050;28;20233;-73
2023/04/08 02:20:47;;;;;;;1.10;0.30;;;26.40;76.60;;;;;;5113810;28;20178;-71
2023/04/08 02:23:23;;;;;;;0.57;0.30;;;26.30;82.90;;;;;;5116246;28;20230;-73
2023/04/08 02:25:55;;;;;;;3.77;0.50;;;26.60;82.50;;;;;;5116381;28;20177;-72
2023/04/08 02:28:23;;;;;;;5.00;0.60;;;26.90;85.30;;;;;;5115814;28;20211;-70
2023/04/08 02:30:52;;;;;;;0.20;0.20;;;26.80;85.50;;;;;;5115872;28;20183;-72
2023/04/08 02:33:21;;;;;;;0.40;0.40;;;26.60;80.10;;;;;;5115919;28;20174;-74
2023/04/08 02:35:53;;;;;;;0.73;0.30;;;26.80;80.70;;;;;;5115271;28;20170;-73
2023/04/08 02:38:22;;;;;;;2.57;0.20;;;27.30;78.90;;;;;;5115910;27;20174;-72
2023/04/08 02:40:50;;;;;;;0.53;0.30;;;27.50;73.00;;;;;;5115584;28;20279;-70
2023/04/08 02:43:18;;;;;;;0.80;0.30;;;27.20;74.30;;;;;;5115304;28;20665;-72
2023/04/08 02:45:46;;;;;;;0.63;0.40;;;26.60;77.80;;;;;;5106107;28;20178;-69
2023/04/08 02:48:13;;;;;;;0.20;0.20;;;26.70;76.60;;;;;;5104493;28;20178;-72
2023/04/08 02:50:40;;;;;;;0.37;0.23;;;27.10;80.50;;;;;;5105292;28;20201;-70
2023/04/08 02:53:09;;;;;;;2.40;0.30;;;27.20;74.60;;;;;;5103814;28;20721;-72
2023/04/08 02:55:36;;;;;;;1.10;0.27;;;27.50;69.60;;;;;;5103327;28;20547;-71
2023/04/08 02:58:04;;;;;;;0.83;0.30;;;27.30;72.60;;;;;;5104304;28;20198;-72
2023/04/08 03:00:31;;;;;;;0.50;0.20;;;27.10;75.00;;;;;;5106637;28;20174;-73
2023/04/08 03:02:59;;;;;;;0.20;0.20;;;26.60;77.00;;;;;;5115351;28;20200;-74
2023/04/08 03:05:27;;;;;;;0.30;0.20;;;26.30;79.40;;;;;;5114923;28;20235;-74
2023/04/08 03:07:54;;;;;;;2.97;0.50;;;26.80;85.30;;;;;;5113099;28;20186;-72
2023/04/08 03:10:21;;;;;;;0.40;0.20;;;27.30;83.80;;;;;;5115266;28;20239;-73
2023/04/08 03:12:49;;;;;;;0.40;0.40;;;27.40;77.50;;;;;;5113317;28;20230;-73
2023/04/08 03:15:16;;;;;;;1.37;0.30;;;27.50;79.00;;;;;;5115165;28;20219;-73
2023/04/08 03:17:44;;;;;;;2.53;0.33;;;27.60;75.60;;;;;;5110629;28;20242;-76
2023/04/08 03:20:11;;;;;;;1.80;0.23;;;27.40;77.70;;;;;;5094104;28;20191;-74
2023/04/08 03:22:39;;;;;;;0.30;0.30;;;27.10;82.90;;;;;;5094763;28;20182;-75
2023/04/08 03:25:07;;;;;;;3.60;0.60;;;26.80;80.10;;;;;;5094524;28;20743;-75
2023/04/08 03:27:34;;;;;;;0.97;0.30;;;26.80;79.10;;;;;;5094219;28;20182;-74
2023/04/08 03:30:01;;;;;;;1.63;0.30;;;27.10;80.00;;;;;;5094266;28;20267;-75
2023/04/08 03:32:29;;;;;;;1.17;0.20;;;27.20;78.40;;;;;;5094259;28;20734;-74
2023/04/08 03:34:56;;;;;;;0.47;0.33;;;27.00;76.40;;;;;;5093983;28;20662;-75
2023/04/08 03:37:24;;;;;;;1.10;0.20;;;27.10;79.60;;;;;;5096704;28;20276;-74
2023/04/08 03:39:51;;;;;;;0.30;0.30;;;26.80;83.00;;;;;;5108576;28;20186;-75
2023/04/08 03:42:19;;;;;;;0.87;0.33;;;26.70;82.70;;;;;;5113582;28;20228;-74
2023/04/08 03:44:46;;;;;;;1.03;0.30;;;27.10;85.00;;;;;;5113242;28;20317;-75
2023/04/08 03:47:13;;;;;;;1.60;0.40;;;26.70;78.80;;;;;;5112921;28;20229;-74
2023/04/08 03:49:41;;;;;;;0.60;0.30;;;26.50;86.60;;;;;;5113726;28;20178;-74
2023/04/08 03:52:08;;;;;;;0.30;0.30;;;25.80;85.00;;;;;;5113990;28;20210;-73
2023/04/08 03:54:36;;;;;;;0.30;0.30;;;26.10;86.00;;;;;;5109313;28;20184;-74
2023/04/08 03:57:03;;;;;;;3.13;0.40;;;26.30;90.40;;;;;;5104122;28;20178;-74
2023/04/08 03:59:32;;;;;;;0.50;0.40;;;25.90;89.40;;;;;;5112093;28;20186;-74
2023/04/08 04:02:00;;;;;;;0.30;0.30;;;25.90;92.60;;;;;;5114162;28;20280;-74
2023/04/08 04:04:27;;;;;;;1.27;0.60;;;25.60;90.50;;;;;;5111297;28;20254;-73
2023/04/08 04:06:55;;;;;;;0.33;0.27;;;25.50;92.80;;;;;;5093815;28;20194;-72
2023/04/08 04:09:22;;;;;;;3.77;0.37;;;26.00;92.60;;;;;;5102088;28;20199;-73
2023/04/08 04:11:50;;;;;;;0.70;0.43;;;25.80;90.60;;;;;;5097728;28;20229;-74
2023/04/08 04:14:17;;;;;;;0.43;0.43;;;25.80;89.80;;;;;;5093725;28;20179;-73
2023/04/08 04:16:44;;;;;;;0.83;0.37;;;25.60;90.50;;;;;;5093434;28;20268;-73
2023/04/08 04:19:12;;;;;;;0.40;0.40;;;25.90;88.70;;;;;;5104286;28;20183;-72
2023/04/08 04:21:39;;;;;;;2.23;0.40;;;25.70;88.30;;;;;;5093444;28;20264;-74
2023/04/08 04:24:06;;;;;;;1.33;0.50;;;25.70;88.70;;;;;;5093480;28;20171;-73
2023/04/08 04:26:34;;;;;;;0.93;0.30;;;25.70;88.50;;;;;;5092965;28;20179;-74
2023/04/08 04:29:01;;;;;;;0.90;0.43;;;25.30;88.40;;;;;;5110260;28;20251;-72
2023/04/08 04:31:29;;;;;;;0.50;0.40;;;25.20;90.20;;;;;;5106503;28;20203;-73
2023/04/08 04:33:56;;;;;;;2.87;0.47;;;24.90;93.00;;;;;;5092878;28;20178;-73
2023/04/08 04:36:24;;;;;;;0.77;0.40;;;25.50;94.60;;;;;;5093261;28;20266;-72
2023/04/08 04:38:51;;;;;;;0.40;0.40;;;25.40;92.30;;;;;;5093150;28;20191;-73
2023/04/08 04:41:20;;;;;;;1.33;0.50;;;25.50;94.10;;;;;;5093186;28;20168;-74
2023/04/08 04:43:47;;;;;;;0.50;0.50;;;25.80;94.40;;;;;;5091829;28;20186;-73
2023/04/08 04:46:15;;;;;;;0.47;0.40;;;25.30;94.70;;;;;;5093304;28;20174;-73
2023/04/08 04:48:42;;;;;;;0.50;0.40;;;25.30;92.50;;;;;;5092427;28;20217;-73
2023/04/08 04:51:10;;;;;;;0.60;0.50;;;25.30;92.80;;;;;;5091502;28;20247;-73
2023/04/08 04:53:37;;;;;;;0.67;0.50;;;25.20;94.50;;;;;;5093591;28;20892;-72
2023/04/08 04:56:05;;;;;;;0.77;0.60;;;25.20;94.10;;;;;;5106654;28;20232;-71
2023/04/08 04:58:32;;;;;;;0.53;0.53;;;25.10;93.80;;;;;;5098585;28;20183;-73
2023/04/08 05:01:00;;;;;;;0.50;0.50;;;24.80;94.70;;;;;;5097552;28;20258;-72
2023/04/08 05:03:27;;;;;;;1.10;0.63;;;24.40;96.80;;;;;;5112640;28;20193;-72
2023/04/08 05:05:55;;;;;;;4.47;0.67;;;24.20;98.40;;;;;;5112977;28;20178;-70
2023/04/08 05:08:22;;;;;;;1.80;0.60;;;24.10;99.90;;;;;;5112935;28;20198;-72
2023/04/08 05:10:50;;;;;;;1.03;0.90;;;24.30;99.20;;;;;;5112741;28;20184;-75
2023/04/08 05:13:18;;;;;;;0.80;0.80;;;24.10;98.00;;;;;;5112839;28;20221;-77
2023/04/08 05:15:48;;;;;;;0.90;0.90;;;23.90;97.60;;;;;;5113136;28;20182;-70
2023/04/08 05:18:16;;;;;;;2.83;1.07;;;23.60;99.90;;;;;;5105160;28;20229;-71
2023/04/08 05:20:43;;;;;;;0.90;0.90;;;23.70;99.90;;;;;;5102485;28;20717;-70
2023/04/08 05:23:10;;;;;;;1.00;0.90;;;23.70;99.90;;;;;;5100845;28;20509;-72
2023/04/08 05:25:38;;;;;;;1.13;0.90;;;23.90;99.60;;;;;;5102132;28;20265;-76
2023/04/08 05:28:06;;;;;;;1.27;0.87;;;23.80;99.90;;;;;;5102096;28;20186;-70
2023/04/08 05:30:33;;;;;;;1.40;1.03;;;23.90;98.70;;;;;;5103004;28;20303;-73
2023/04/08 05:33:00;;;;;;;3.00;1.00;;;23.70;98.80;;;;;;5101107;28;20202;-73
2023/04/08 05:35:28;;;;;;;1.73;1.00;;;23.60;99.90;;;;;;5101193;28;20177;-75
2023/04/08 05:37:56;;;;;;;1.10;1.00;;;23.70;99.90;;;;;;5102204;28;20189;-77
2023/04/08 05:40:23;;;;;;;1.53;1.03;;;23.80;99.90;;;;;;5098833;28;20180;-72
2023/04/08 05:42:50;;;;;;;1.20;0.90;;;23.80;99.90;;;;;;5096905;28;20183;-74
2023/04/08 05:45:18;;;;;;;1.03;0.93;;;23.90;99.90;;;;;;5100596;28;20182;-72
2023/04/08 05:47:45;;;;;;;1.37;1.20;;;23.60;99.90;;;;;;5101288;28;20183;-71
2023/04/08 05:50:13;;;;;;;0.90;0.90;;;23.40;99.90;;;;;;5100285;28;20182;-72
2023/04/08 05:52:44;;;;;;;2.00;1.27;;;23.50;99.90;;;;;;5100596;28;20212;-77
2023/04/08 05:55:13;;;;;;;1.07;0.97;;;23.60;99.90;;;;;;5099332;28;20258;-78
2023/04/08 05:57:40;;;;;;;1.23;1.00;;;23.60;99.90;;;;;;5101355;28;20254;-76
2023/04/08 06:00:10;;;;;;;3.70;1.37;;;23.70;99.90;;;;;;5100449;28;20175;-78
2023/04/08 06:02:37;;;;;;;2.70;1.00;;;23.60;99.90;;;;;;5099654;28;20179;-75
2023/04/08 06:05:05;;;;;;;1.60;1.20;;;23.60;99.90;;;;;;5106020;28;20269;-74
2023/04/08 06:07:33;;;;;;;1.67;1.20;;;23.50;99.90;;;;;;5110743;28;20177;-70
2023/04/08 06:10:01;;;;;;;1.23;1.13;;;23.50;99.90;;;;;;5102380;28;20624;-69
2023/04/08 06:12:28;;;;;;;1.30;1.20;;;23.50;99.90;;;;;;5105853;28;20322;-73
2023/04/08 06:14:56;;;;;;;2.83;1.37;;;23.50;99.90;;;;;;5091671;28;20693;-76
2023/04/08 06:17:24;;;;;;;1.87;1.40;;;23.40;99.90;;;;;;5092160;28;20563;-77
2023/04/08 06:19:51;;;;;;;3.73;1.40;;;23.30;99.90;;;;;;5097711;28;20174;-78
2023/04/08 06:22:18;;;;;;;1.23;1.13;;;23.30;99.90;;;;;;5106037;28;20662;-80
2023/04/08 06:24:47;;;;;;;1.60;1.30;;;23.30;99.90;;;;;;5101506;28;20187;-80
2023/04/08 06:27:15;;;;;;;2.30;1.53;;;23.20;99.90;;;;;;5109892;28;20241;-78
2023/04/08 06:29:42;;;;;;;2.20;1.47;;;23.20;99.90;;;;;;5111473;28;20625;-78
2023/04/08 06:32:10;;;;;;;2.13;1.50;;;23.10;99.90;;;;;;5110969;28;20292;-74
2023/04/08 06:34:37;;;;;;;1.67;1.40;;;22.90;99.90;;;;;;5110027;28;20251;-78
2023/04/08 06:37:05;;;;;;;2.97;1.70;;;22.80;99.90;;;;;;5111592;28;20191;-75
2023/04/08 06:39:32;;;;;;;1.97;1.77;;;22.70;99.90;;;;;;5111432;28;20202;-76
2023/04/08 06:42:00;;;;;;;2.50;1.60;;;22.50;99.90;;;;;;5105921;28;20178;-78
2023/04/08 06:44:27;;;;;;;2.33;1.60;;;22.40;99.90;;;;;;5111790;28;20257;-77
2023/04/08 06:46:55;;;;;;;5.70;1.60;;;22.30;99.90;;;;;;5109765;28;20190;-78
2023/04/08 06:49:22;;;;;;;2.63;1.80;;;22.30;99.90;;;;;;5111388;28;20174;-76
2023/04/08 06:51:49;;;;;;;2.07;1.87;;;22.30;99.90;;;;;;5104212;28;20260;-76
2023/04/08 06:54:17;;;;;;;2.07;1.80;;;22.40;99.90;;;;;;5103289;28;20182;-76
2023/04/08 06:56:44;;;;;;;2.10;1.90;;;22.40;99.90;;;;;;5099056;28;20217;-77
2023/04/08 06:59:12;;;;;;;2.30;1.70;;;22.40;99.90;;;;;;5091444;28;20688;-71
2023/04/08 07:01:40;;;;;;;2.77;1.63;;;22.40;99.90;;;;;;5089491;28;20292;-74
2023/04/08 07:04:07;;;;;;;2.77;1.63;;;22.40;99.90;;;;;;5091097;28;20179;-74
2023/04/08 07:06:35;;;;;;;2.03;1.60;;;22.30;99.90;;;;;;5109867;28;20285;-76
2023/04/08 07:09:03;;;;;;;2.00;1.70;;;22.20;99.90;;;;;;5114381;28;20264;-75
2023/04/08 07:11:30;;;;;;;1.73;1.50;;;22.20;99.90;;;;;;5114776;28;20632;-75
2023/04/08 07:13:58;;;;;;;3.10;1.80;;;22.10;99.90;;;;;;5114921;28;20171;-69
2023/04/08 07:16:25;;;;;;;2.20;2.00;;;22.00;99.90;;;;;;5114154;28;20768;-75
2023/04/08 07:18:53;;;;;;;2.20;1.90;;;21.90;99.90;;;;;;5114704;28;20179;-74
2023/04/08 07:21:20;;;;;;;3.03;1.90;;;21.70;99.90;;;;;;5104457;28;20174;-69
2023/04/08 07:24:00;;;;;;;3.03;1.80;;;21.60;99.90;;;;;;5103671;28;20260;-73
2023/04/08 07:26:27;;;;;;;2.93;1.67;;;21.50;99.90;;;;;;5113213;28;20175;-74
2023/04/08 07:28:54;;;;;;;2.00;1.73;;;21.40;99.90;;;;;;5114610;28;20247;-74
2023/04/08 07:31:22;;;;;;;3.57;1.80;;;21.30;99.90;;;;;;5112421;28;20198;-73
2023/04/08 07:33:49;;;;;;;3.43;1.93;;;21.30;99.90;;;;;;5114472;27;20222;-74
2023/04/08 07:36:17;;;;;;;2.67;1.97;;;21.20;99.90;;;;;;5110258;28;20216;-73
2023/04/08 07:38:44;;;;;;;3.60;2.17;;;21.10;99.90;;;;;;5114057;28;20176;-76
2023/04/08 07:41:12;;;;;;;2.07;1.73;;;21.10;99.90;;;;;;5114474;28;20186;-76
2023/04/08 07:43:40;;;;;;;4.27;2.07;;;21.00;99.90;;;;;;5114401;28;20182;-75
2023/04/08 07:46:07;;;;;;;5.63;1.93;;;20.90;99.90;;;;;;5112116;28;20642;-73
2023/04/08 07:48:35;;;;;;;2.30;2.10;;;20.80;99.90;;;;;;5113895;28;20277;-75
2023/04/08 07:51:07;;;;;;;2.07;1.87;;;20.80;99.90;;;;;;5113985;28;20552;-73
2023/04/08 07:53:35;;;;;;;1.67;1.57;;;20.60;99.90;;;;;;5112792;28;20190;-76
2023/04/08 07:56:05;;;;;;;2.03;1.80;;;20.60;99.90;;;;;;5114078;28;20178;-73
2023/04/08 07:58:33;;;;;;;2.23;1.67;;;20.50;99.90;;;;;;5113821;28;20570;-75
2023/04/08 08:01:00;;;;;;;2.43;2.10;;;20.40;99.90;;;;;;5113654;28;20537;-74
2023/04/08 08:03:28;;;;;;;2.87;2.37;;;20.30;99.90;;;;;;5113599;28;20666;-74
2023/04/08 08:05:55;;;;;;;2.90;1.87;;;20.30;99.90;;;;;;5113658;28;20180;-75
2023/04/08 08:08:22;;;;;;;2.50;1.70;;;20.20;99.90;;;;;;5113514;28;20184;-76
2023/04/08 08:10:50;;;;;;;5.30;2.20;;;20.10;99.90;;;;;;5113502;28;20180;-75
2023/04/08 08:13:20;;;;;;;2.80;2.30;;;20.10;99.90;;;;;;5112414;28;20214;-74
2023/04/08 08:15:52;;;;;;;4.00;2.60;;;20.10;99.90;;;;;;5113190;28;20173;-75
2023/04/08 08:18:20;;;;;;;3.23;2.30;;;20.10;99.90;;;;;;5112934;28;20235;-73
2023/04/08 08:20:47;;;;;;;3.73;2.20;;;20.10;99.90;;;;;;5113749;28;20167;-73
2023/04/08 08:23:15;;;;;;;2.53;1.87;;;20.10;99.90;;;;;;5112924;28;20212;-73
2023/04/08 08:25:43;;;;;;;2.53;1.87;;;20.10;99.90;;;;;;5113043;28;20681;-70
2023/04/08 08:28:10;;;;;;;2.10;1.80;;;20.10;99.90;;;;;;5114649;28;20301;-75
2023/04/08 08:30:38;;;;;;;3.07;2.17;;;20.00;99.90;;;;;;5114758;28;20185;-76
2023/04/08 08:33:05;;;;;;;3.23;2.17;;;20.00;99.90;;;;;;5123811;28;20220;-72
2023/04/08 08:35:33;;;;;;;3.20;2.00;;;20.00;99.90;;;;;;5119448;28;20194;-75
2023/04/08 08:38:00;;;;;;;3.10;2.17;;;19.90;99.90;;;;;;5119827;28;20217;-74
2023/04/08 08:40:28;;;;;;;2.53;2.03;;;19.90;99.90;;;;;;5117635;28;20177;-74
2023/04/08 08:42:57;;;;;;;2.93;1.90;;;19.80;99.90;;;;;;5111111;28;20180;-74
2023/04/08 08:45:25;;;;;;;3.87;2.20;;;19.90;99.90;;;;;;5114331;28;20185;-73
2023/04/08 08:47:52;;;;;;;2.93;1.80;;;19.80;99.90;;;;;;5113755;28;20194;-77
2023/04/08 08:50:20;;;;;;;2.93;2.00;;;19.80;99.90;;;;;;5114069;28;20679;-73
2023/04/08 08:52:51;;;;;;;2.30;2.00;;;19.80;99.90;;;;;;5113908;28;20566;-73
2023/04/08 08:55:22;;;;;;;3.10;2.13;;;19.80;99.90;;;;;;5113739;28;20174;-74
2023/04/08 08:57:52;;;;;;;5.00;2.00;;;19.70;99.90;;;;;;5114184;28;20193;-74
2023/04/08 09:00:34;;;;;;;3.87;2.30;;;19.60;99.90;;;;;;5113819;28;20182;-75
2023/04/08 09:03:19;;;;;;;3.37;2.00;;;19.50;99.90;;;;;;5113986;28;20215;-76
2023/04/08 09:05:54;;;;;;;7.50;2.20;;;19.40;99.90;;;;;;5113944;28;20175;-75
2023/04/08 09:08:34;;;;;;;3.27;1.80;;;19.30;99.90;;;;;;5113779;28;20197;-73
2023/04/08 09:14:26;;;;;;;4.00;2.27;;;19.30;99.90;;;;;;5113284;28;20282;-74
2023/04/08 09:16:53;;;;;;;3.90;2.03;;;19.30;99.90;;;;;;5113735;28;20226;-74
2023/04/08 09:19:21;;;;;;;3.50;2.17;;;19.30;99.90;;;;;;5113762;28;20666;-76
2023/04/08 09:22:08;;;;;;;3.37;2.30;;;19.20;99.90;;;;;;5113250;28;20258;-74
2023/04/08 09:24:36;;;;;;;3.40;2.17;;;19.20;99.90;;;;;;5113803;28;20209;-76
2023/04/08 09:27:05;;;;;;;3.33;2.40;;;19.10;99.90;;;;;;5113465;28;20529;-76
2023/04/08 09:29:33;;;;;;;3.90;2.43;;;19.00;99.90;;;;;;5112654;28;20175;-76
2023/04/08 09:32:01;;;;;;;3.90;2.27;;;18.90;99.90;;;;;;5113079;28;20289;-75
2023/04/08 09:34:31;;;;;;;4.20;2.30;;;18.90;99.90;;;;;;5113156;28;20227;-76
2023/04/08 09:36:58;;;;;;;2.90;2.20;;;18.80;99.90;;;;;;5113150;28;20190;-75
2023/04/08 09:39:26;;;;;;;2.97;2.37;;;18.80;99.90;;;;;;5113330;28;20647;-75
2023/04/08 09:41:57;;;;;;;1.90;1.80;;;18.80;99.90;;;;;;5112988;28;20177;-74
2023/04/08 09:44:28;;;;;;;2.13;1.90;;;18.80;99.90;;;;;;5113409;28;20261;-75
2023/04/08 09:47:07;;;;;;;4.37;2.30;;;18.90;99.90;;;;;;5113105;28;20171;-75
2023/04/08 09:49:59;;;;;;;2.53;2.10;;;18.90;99.90;;;;;;5111837;28;20543;-74
2023/04/08 09:52:39;;;;;;;3.73;2.00;;;18.90;99.90;;;;;;5102463;28;20229;-75
2023/04/08 09:55:11;;;;;;;2.67;2.13;;;18.80;99.90;;;;;;5112829;28;20170;-76
2023/04/08 09:58:24;;;;;;;3.17;2.00;;;18.80;99.90;;;;;;5113287;28;20163;-76
2023/04/08 10:00:53;;;;;;;3.00;2.10;;;18.80;99.90;;;;;;5068986;28;20194;-75
2023/04/08 10:03:33;;;;;;;4.53;1.90;;;18.90;99.90;;;;;;5113120;28;20177;-74
2023/04/08 10:06:05;;;;;;;3.53;1.90;;;18.90;99.90;;;;;;5113159;28;20263;-76
2023/04/08 10:08:32;;;;;;;5.00;1.90;;;19.00;99.90;;;;;;5113168;28;20195;-73
2023/04/08 10:11:00;;;;;;;5.50;2.60;;;18.90;99.90;;;;;;5113073;28;20181;-73
2023/04/08 10:13:28;;;;;;;3.50;1.87;;;18.90;99.90;;;;;;5112663;28;20237;-75
2023/04/08 10:16:14;;;;;;;2.17;1.43;;;18.90;99.90;;;;;;5113311;28;20208;-73
2023/04/08 10:18:43;;;;;;;2.40;1.60;;;18.90;99.90;;;;;;5112756;28;20595;-73
2023/04/08 10:21:32;;;;;;;2.27;1.57;;;18.80;99.90;;;;;;5111597;28;20174;-74
2023/04/08 10:24:05;;;;;;;2.53;1.57;;;18.80;99.90;;;;;;5112748;28;20534;-75
2023/04/08 10:26:40;;;;;;;2.83;1.70;;;18.90;99.90;;;;;;5113158;28;20202;-72
2023/04/08 10:29:20;;;;;;;2.90;1.80;;;18.90;99.90;;;;;;5112659;28;20177;-73
2023/04/08 10:31:51;;;;;;;2.93;1.80;;;18.80;99.90;;;;;;5112691;28;20211;-73
2023/04/08 10:34:21;;;;;;;1.73;1.43;;;18.80;99.90;;;;;;5112821;28;20175;-70
2023/04/08 10:36:49;;;;;;;4.23;1.60;;;18.70;99.90;;;;;;5112626;28;20185;-72
2023/04/08 10:39:17;;;;;;;3.63;1.50;;;18.60;99.90;;;;;;5112753;28;20182;-74
2023/04/08 10:41:50;;;;;;;1.60;1.50;;;18.60;99.90;;;;;;5114823;28;20206;-75
2023/04/08 10:44:25;;;;;;;3.67;1.60;;;18.60;99.90;;;;;;5117038;28;20167;-73
2023/04/08 10:46:54;;;;;;;3.83;1.30;;;18.50;99.90;;;;;;5116958;28;20179;-75
2023/04/08 10:49:22;;;;;;;2.40;1.60;;;18.50;99.90;;;;;;5116805;28;20249;-70
2023/04/08 10:51:51;;;;;;;4.47;1.80;;;18.40;99.90;;;;;;5116327;28;20766;-72
2023/04/08 10:54:19;;;;;;;3.73;2.30;;;18.40;99.90;;;;;;5116623;28;20604;-71
2023/04/08 10:56:52;;;;;;;2.43;1.40;;;18.30;99.90;;;;;;5116835;28;20186;-72
2023/04/08 10:59:31;;;;;;;3.17;1.70;;;18.30;99.90;;;;;;5116185;28;20519;-70
2023/04/08 11:02:01;;;;;;;2.87;1.60;;;18.30;99.90;;;;;;5116676;28;20320;-70
2023/04/08 11:04:28;;;;;;;2.70;1.70;;;18.20;99.90;;;;;;5116077;27;20595;-70
2023/04/08 11:06:57;;;;;;;4.80;2.13;;;18.10;99.90;;;;;;5116636;28;20261;-70
2023/04/08 11:09:25;;;;;;;5.50;2.27;;;18.10;99.90;;;;;;5116137;28;20244;-69
2023/04/08 11:11:55;;;;;;;5.73;2.07;;;18.10;99.90;;;;;;5116057;28;20215;-69
2023/04/08 11:14:24;;;;;;;5.20;1.87;;;18.10;99.90;;;;;;5116297;28;20254;-70
2023/04/08 11:16:52;;;;;;;3.00;1.70;;;18.00;99.90;;;;;;5116154;28;20229;-69
2023/04/08 11:19:21;;;;;;;2.50;1.43;;;18.00;99.90;;;;;;5114859;28;20175;-72
2023/04/08 11:21:51;;;;;;;2.77;1.70;;;18.00;99.90;;;;;;5115887;27;20183;-70
2023/04/08 11:24:21;;;;;;;4.50;2.80;;;18.00;99.90;;;;;;5116173;28;20221;-70
2023/04/08 11:26:49;;;;;;;3.60;2.50;;;18.00;99.90;;;;;;5115904;28;20212;-69
2023/04/08 11:29:17;;;;;;;2.80;1.90;;;18.00;99.90;;;;;;5115724;28;20175;-68
2023/04/08 11:31:46;;;;;;;4.80;2.53;;;17.90;99.90;;;;;;5115832;28;20229;-70
2023/04/08 11:34:23;;;;;;;3.30;2.10;;;17.80;99.90;;;;;;5114529;28;20192;-71
2023/04/08 11:36:55;;;;;;;3.43;1.70;;;17.80;99.90;;;;;;5116028;28;20174;-72
2023/04/08 11:39:23;;;;;;;1.90;1.37;;;17.70;99.90;;;;;;5115961;28;20209;-69
2023/04/08 11:41:52;;;;;;;2.17;1.97;;;17.70;99.90;;;;;;5115634;28;20184;-69
2023/04/08 11:44:20;;;;;;;5.33;2.00;;;17.60;99.90;;;;;;5115799;28;20182;-71
2023/04/08 11:46:55;;;;;;;2.80;1.70;;;17.40;99.90;;;;;;5115503;28;20219;-70
2023/04/08 11:49:23;;;;;;;3.20;1.97;;;17.20;99.90;;;;;;5115635;27;20663;-68
2023/04/08 11:51:59;;;;;;;3.17;1.97;;;17.10;99.90;;;;;;5115474;28;20198;-71
2023/04/08 11:54:32;;;;;;;3.53;2.00;;;16.90;99.90;;;;;;5113176;28;20182;-69
2023/04/08 11:57:01;;;;;;;2.37;1.80;;;16.80;99.90;;;;;;5115679;28;20220;-70
2023/04/08 11:59:29;;;;;;;2.10;1.50;;;16.70;99.90;;;;;;5115386;28;20253;-70
2023/04/08 12:01:57;;;;;;;2.07;1.67;;;16.80;99.90;;;;;;5115466;28;20209;-72
2023/04/08 12:04:25;;;;;;;3.03;1.50;;;16.90;99.90;;;;;;5115396;28;20746;-70
2023/04/08 12:06:53;;;;;;;2.73;1.47;;;17.00;99.90;;;;;;5115330;28;20182;-68
2023/04/08 12:09:21;;;;;;;3.30;1.67;;;17.30;99.90;;;;;;5115349;28;20202;-69
2023/04/08 12:11:49;;;;;;;2.13;1.40;;;17.50;99.90;;;;;;5114915;28;20198;-69
2023/04/08 12:14:17;;;;;;;1.33;1.13;;;17.80;99.90;;;;;;5114892;28;20178;-68
2023/04/08 12:16:44;;;;;;;1.77;1.27;;;17.90;99.90;;;;;;5113791;28;20275;-74
2023/04/08 12:19:12;;;;;;;3.40;1.27;;;17.90;99.90;;;;;;5113731;28;20189;-71
2023/04/08 12:21:40;;;;;;;1.90;1.30;;;18.00;99.90;;;;;;5114793;28;20182;-73
2023/04/08 12:24:08;;;;;;;3.30;1.40;;;18.10;99.90;;;;;;5114981;28;20653;-75
2023/04/08 12:26:36;;;;;;;1.77;0.93;;;18.00;99.90;;;;;;5114997;28;20648;-73
2023/04/08 12:29:03;;;;;;;1.70;1.20;;;18.00;99.90;;;;;;5114885;28;20258;-74
2023/04/08 12:31:34;;;;;;;2.63;1.37;;;17.90;99.90;;;;;;5114411;28;20202;-73
2023/04/08 12:34:02;;;;;;;1.37;1.20;;;17.80;99.90;;;;;;5114691;28;20814;-73
2023/04/08 12:36:30;;;;;;;1.87;1.60;;;17.70;99.90;;;;;;5114862;28;20655;-73
2023/04/08 12:38:58;;;;;;;1.50;1.40;;;17.50;99.90;;;;;;5114857;28;20651;-74
2023/04/08 12:41:26;;;;;;;2.70;1.43;;;17.30;99.90;;;;;;5112874;28;20235;-73
2023/04/08 12:43:54;;;;;;;1.93;1.40;;;17.10;99.90;;;;;;5114700;28;20244;-75
2023/04/08 12:46:22;;;;;;;2.97;1.70;;;16.90;99.90;;;;;;5112979;28;20204;-74
2023/04/08 12:48:50;;;;;;;1.70;1.33;;;16.70;99.90;;;;;;5114602;28;20174;-74
2023/04/08 12:51:18;;;;;;;2.87;1.67;;;16.60;99.90;;;;;;5114351;28;20598;-73
2023/04/08 12:53:46;;;;;;;4.27;2.13;;;16.40;99.90;;;;;;5112979;28;20558;-74
2023/04/08 12:56:14;;;;;;;3.93;2.27;;;16.30;99.90;;;;;;5113986;28;20236;-73
2023/04/08 12:58:41;;;;;;;9.70;3.47;;;16.20;99.90;;;;;;5114330;28;20180;-75
2023/04/08 13:01:11;;;;;;;4.53;3.07;;;16.00;99.90;;;;;;5114316;27;20185;-75